Hagerstown, Maryland
Current Conditions -  °F | °C
As of 2:53 AM on Friday 19 Dec 2014 (Local Time) from KHGR Reporting Station
Overcast Overcast  
Wind Chill: 25°   Ceiling: 2700
Heat Index: 33°   Visibility: 10mi
Dew Point: 22°   Wind: 10mph
Humidity: 64%   Direction: 290°WNW
Pressure: 30.09"   Gusts: NA
Location:  39.65°N, 77.73°W
Report Text: KHGR 190753Z AUTO 29009KT 10SM OVC027 01/M06 A3009 RMK AO2 SLP207 T00061056
Loading
Personal Weather Stations






























Interactive Weather Map New forecast layout! Learn more

10-Day Weather Forecast

Advertisements
Track Severe Weather on mobile